createdAt,value
2023-05-06T04:02:37.681Z,0.8
2023-05-06T04:15:19.783Z,1.1
2023-05-06T04:30:20.008Z,1.1
2023-05-06T04:45:19.818Z,4.5
2023-05-06T05:00:19.878Z,9
2023-05-06T05:15:24.397Z,9.3
2023-05-06T05:30:20.390Z,12.8
2023-05-06T05:45:19.858Z,20.5
2023-05-06T06:00:20.264Z,20
2023-05-06T06:15:19.917Z,16.4
2023-05-06T06:30:20.093Z,19.9
2023-05-06T06:45:20.381Z,26.5
2023-05-06T07:00:19.729Z,42.1
2023-05-06T07:15:20.320Z,45
2023-05-06T07:30:21.037Z,43.4
2023-05-06T07:45:19.679Z,49.4
2023-05-06T08:00:20.266Z,74.2
2023-05-06T08:15:19.591Z,71.8
2023-05-06T08:30:20.165Z,71.7
2023-05-06T08:45:20.322Z,66.7
2023-05-06T09:00:20.345Z,75
2023-05-06T09:15:19.731Z,68.9
2023-05-06T09:30:19.974Z,67.2
2023-05-06T09:45:19.479Z,72.2
2023-05-06T10:00:19.726Z,102.3
2023-05-06T10:15:20.371Z,102.8
2023-05-06T10:30:19.900Z,92.1
2023-05-06T10:45:20.038Z,73.8
2023-05-06T11:00:19.849Z,84.1
2023-05-06T11:15:20.152Z,101
2023-05-06T11:30:19.955Z,102.6
2023-05-06T11:45:19.746Z,95.2
2023-05-06T12:00:20.166Z,102.3
2023-05-06T12:15:19.930Z,117.4
2023-05-06T12:30:20.400Z,118.1
2023-05-06T12:45:20.066Z,80
2023-05-06T13:00:20.816Z,91.9
2023-05-06T13:15:19.853Z,89.5
2023-05-06T13:30:19.249Z,65.8
2023-05-06T13:45:20.288Z,59.2
2023-05-06T14:00:19.905Z,65.5
2023-05-06T14:15:20.129Z,77.6
2023-05-06T14:30:19.428Z,82.6
2023-05-06T14:45:19.768Z,75.5
2023-05-06T15:00:20.137Z,70.3
2023-05-06T15:15:19.904Z,51.1
2023-05-06T15:30:19.392Z,39.1
2023-05-06T15:45:20.099Z,37.9
2023-05-06T16:00:19.641Z,31.1
2023-05-06T16:15:19.935Z,25.7
2023-05-06T16:30:19.950Z,19.6
2023-05-06T16:45:19.856Z,18.3
2023-05-06T17:00:20.480Z,17.9
2023-05-06T17:15:20.317Z,16.4
2023-05-06T17:30:25.370Z,17.6
2023-05-06T17:45:19.811Z,15.3
2023-05-06T18:00:20.740Z,10.5
2023-05-06T18:15:20.273Z,6.4
2023-05-06T18:30:20.499Z,3.6
2023-05-06T18:45:19.609Z,2.3
2023-05-06T19:00:19.697Z,0.8
2023-05-06T19:15:20.631Z,0.8
2023-05-06T19:30:20.339Z,0.8
2023-05-06T19:45:20.233Z,0.8
2023-05-06T21:15:19.355Z,6.6
2023-05-06T21:30:20.160Z,2.5
2023-05-06T21:45:19.633Z,2
2023-05-06T22:00:20.750Z,1.7
2023-05-06T22:15:33.180Z,1.7
2023-05-06T22:30:19.957Z,2.2
2023-05-06T22:45:19.699Z,3
2023-05-06T23:00:20.434Z,3
2023-05-06T23:15:19.471Z,3
2023-05-06T23:30:19.916Z,3
2023-05-06T23:45:20.118Z,3
